createdAt,value
2023-06-17T00:00:10.938Z,20.02
2023-06-17T00:02:38.358Z,21.90
2023-06-17T00:05:06.792Z,16.85
2023-06-17T00:07:34.250Z,19.30
2023-06-17T00:10:01.972Z,20.45
2023-06-17T00:12:32.636Z,18.90
2023-06-17T00:15:04.078Z,18.98
2023-06-17T00:17:31.882Z,17.55
2023-06-17T00:20:08.953Z,18.15
2023-06-17T00:22:36.796Z,14.52
2023-06-17T00:25:04.774Z,15.77
2023-06-17T00:27:32.287Z,13.10
2023-06-17T00:30:00.851Z,17.70
2023-06-17T00:32:32.777Z,16.75
2023-06-17T00:35:00.156Z,15.10
2023-06-17T00:37:27.562Z,11.73
2023-06-17T00:39:55.437Z,14.23
2023-06-17T00:42:23.109Z,16.95
2023-06-17T00:44:51.176Z,11.93
2023-06-17T00:47:18.388Z,16.10
2023-06-17T00:49:46.336Z,16.77
2023-06-17T00:54:44.230Z,17.17
2023-06-17T00:57:14.236Z,19.00
2023-06-17T00:59:43.566Z,15.63
2023-06-17T01:02:11.901Z,15.55
2023-06-17T01:04:43.474Z,14.20
2023-06-17T01:07:24.127Z,14.60
2023-06-17T01:09:57.133Z,18.10
2023-06-17T01:12:27.233Z,15.18
2023-06-17T01:14:55.770Z,14.00
2023-06-17T01:17:23.059Z,17.00
2023-06-17T01:19:50.340Z,17.45
2023-06-17T01:22:18.886Z,17.15
2023-06-17T01:24:49.948Z,16.38
2023-06-17T01:27:21.249Z,15.38
2023-06-17T01:29:50.110Z,11.82
2023-06-17T01:32:17.717Z,10.93
2023-06-17T01:34:48.320Z,17.75
2023-06-17T01:37:17.299Z,14.43
2023-06-17T01:39:45.729Z,13.63
2023-06-17T01:42:17.947Z,14.85
2023-06-17T01:44:46.360Z,7.30
2023-06-17T01:47:13.992Z,9.27
2023-06-17T01:49:41.160Z,10.55
2023-06-17T01:52:10.729Z,15.85
2023-06-17T01:54:39.001Z,9.23
2023-06-17T01:57:06.623Z,11.57
2023-06-17T01:59:34.799Z,9.55
2023-06-17T02:02:02.873Z,8.75
2023-06-17T02:04:30.187Z,10.20
2023-06-17T02:06:58.603Z,11.43
2023-06-17T02:09:25.952Z,9.82
2023-06-17T02:11:53.341Z,9.65
2023-06-17T02:14:20.767Z,8.20
2023-06-17T02:16:48.496Z,11.13
2023-06-17T02:19:16.399Z,21.17
2023-06-17T02:21:43.790Z,9.10
2023-06-17T02:24:11.467Z,10.20
2023-06-17T02:26:40.869Z,10.23
2023-06-17T02:29:08.538Z,11.43
2023-06-17T02:31:36.175Z,8.23
2023-06-17T02:34:03.971Z,9.63
2023-06-17T02:36:31.643Z,11.63
2023-06-17T02:39:00.989Z,15.00
2023-06-17T02:41:29.000Z,8.75
2023-06-17T02:43:56.490Z,12.27
2023-06-17T02:46:25.745Z,10.93
2023-06-17T02:48:53.430Z,11.85
2023-06-17T02:51:21.565Z,17.50
2023-06-17T02:53:49.342Z,12.73
2023-06-17T02:56:19.731Z,11.13
2023-06-17T02:58:47.460Z,10.73
2023-06-17T03:01:15.273Z,9.95
2023-06-17T03:03:46.120Z,7.43
2023-06-17T03:06:14.763Z,9.77
2023-06-17T03:08:45.956Z,13.20
2023-06-17T03:11:13.323Z,9.43
2023-06-17T03:13:43.339Z,8.02
2023-06-17T03:16:25.610Z,13.07
2023-06-17T03:18:54.632Z,7.80
2023-06-17T03:21:22.883Z,7.10
2023-06-17T03:23:52.390Z,6.97
2023-06-17T03:26:21.639Z,9.18
2023-06-17T03:28:51.037Z,9.57
2023-06-17T03:31:21.852Z,13.23
2023-06-17T03:33:52.084Z,12.23
2023-06-17T03:36:20.874Z,6.45
2023-06-17T03:38:48.750Z,8.77
2023-06-17T03:41:18.384Z,7.35
2023-06-17T03:43:48.922Z,8.00
2023-06-17T03:46:16.462Z,7.93
2023-06-17T03:48:44.415Z,9.23
2023-06-17T03:51:12.122Z,9.77
2023-06-17T03:53:40.119Z,5.88
2023-06-17T03:56:09.133Z,8.68
2023-06-17T03:58:37.230Z,9.48
2023-06-17T04:01:07.250Z,7.72
2023-06-17T04:03:35.840Z,10.10
2023-06-17T04:06:03.836Z,15.13
2023-06-17T04:08:33.823Z,6.65
2023-06-17T04:11:01.229Z,17.83
2023-06-17T04:13:29.086Z,6.60
2023-06-17T04:15:57.641Z,7.68
2023-06-17T04:18:29.078Z,8.27
2023-06-17T04:20:57.769Z,10.75
2023-06-17T04:23:29.656Z,5.10
2023-06-17T04:25:57.936Z,7.30
2023-06-17T04:28:26.326Z,9.57
2023-06-17T04:30:54.241Z,5.90
2023-06-17T04:33:25.523Z,5.30
2023-06-17T04:35:53.423Z,4.97
2023-06-17T04:38:22.012Z,12.18
2023-06-17T04:40:54.209Z,6.45
2023-06-17T04:43:25.331Z,5.65
2023-06-17T04:45:53.032Z,10.95
2023-06-17T04:48:22.161Z,8.20
2023-06-17T04:50:49.899Z,4.90
2023-06-17T04:53:19.236Z,5.63
2023-06-17T04:55:46.718Z,8.02
2023-06-17T04:58:15.196Z,10.90
2023-06-17T05:00:51.997Z,6.68
2023-06-17T05:03:26.622Z,7.28
2023-06-17T05:05:54.535Z,7.82
2023-06-17T05:08:26.508Z,8.23
2023-06-17T05:10:54.284Z,6.70
2023-06-17T05:13:22.794Z,6.70
2023-06-17T05:15:51.039Z,12.00
2023-06-17T05:18:18.763Z,13.15
2023-06-17T05:20:46.685Z,5.50
2023-06-17T05:23:14.212Z,7.15
2023-06-17T05:25:42.181Z,6.47
2023-06-17T05:28:12.289Z,7.28
2023-06-17T05:30:40.890Z,6.38
2023-06-17T05:33:09.827Z,5.63
2023-06-17T05:35:38.319Z,7.45
2023-06-17T05:38:06.205Z,6.15
2023-06-17T05:40:34.370Z,9.35
2023-06-17T05:43:02.220Z,14.32
2023-06-17T05:45:29.986Z,7.72
2023-06-17T05:47:59.341Z,9.40
2023-06-17T05:50:29.239Z,5.85
2023-06-17T05:52:58.921Z,8.07
2023-06-17T05:55:26.126Z,10.07
2023-06-17T05:57:53.924Z,4.95
2023-06-17T06:00:23.462Z,7.22
2023-06-17T06:02:51.767Z,6.40
2023-06-17T06:05:19.537Z,7.43
2023-06-17T06:07:47.595Z,5.10
2023-06-17T06:10:16.501Z,8.18
2023-06-17T06:12:48.173Z,6.20
2023-06-17T06:15:15.733Z,6.25
2023-06-17T06:17:43.290Z,7.55
2023-06-17T06:20:13.491Z,5.75
2023-06-17T06:22:41.600Z,6.35
2023-06-17T06:25:09.962Z,10.40
2023-06-17T06:27:37.757Z,6.95
2023-06-17T06:30:06.704Z,8.68
2023-06-17T06:32:39.465Z,10.52
2023-06-17T06:35:07.754Z,9.10
2023-06-17T06:37:35.589Z,8.75
2023-06-17T06:40:06.612Z,6.95
2023-06-17T06:42:40.468Z,12.63
2023-06-17T06:45:22.007Z,8.90
2023-06-17T06:47:49.732Z,8.70
2023-06-17T06:50:17.645Z,8.73
2023-06-17T06:52:49.387Z,7.00
2023-06-17T06:55:16.689Z,6.70
2023-06-17T06:57:46.294Z,7.32
2023-06-17T07:00:15.212Z,7.28
2023-06-17T07:02:44.350Z,7.60
2023-06-17T07:05:12.270Z,8.32
2023-06-17T07:07:45.980Z,10.55
2023-06-17T07:10:13.581Z,6.03
2023-06-17T07:12:41.701Z,5.93
2023-06-17T07:15:11.282Z,9.63
2023-06-17T07:17:41.899Z,6.72
2023-06-17T07:20:09.803Z,10.27
2023-06-17T07:22:40.195Z,13.13
2023-06-17T07:25:08.133Z,4.95
2023-06-17T07:27:36.321Z,6.75
2023-06-17T07:30:04.636Z,5.63
2023-06-17T07:32:32.508Z,7.60
2023-06-17T07:35:01.011Z,7.45
2023-06-17T07:37:29.240Z,5.97
2023-06-17T07:39:57.898Z,7.88
2023-06-17T07:42:26.105Z,7.13
2023-06-17T07:44:53.653Z,9.65
2023-06-17T07:47:22.173Z,15.60
2023-06-17T07:49:54.138Z,7.03
2023-06-17T07:52:22.638Z,9.70
2023-06-17T07:54:52.186Z,7.03
2023-06-17T07:57:20.006Z,5.07
2023-06-17T07:59:47.645Z,5.75
2023-06-17T08:02:15.352Z,14.48
2023-06-17T08:04:43.217Z,10.15
2023-06-17T08:07:11.772Z,7.47
2023-06-17T08:09:39.926Z,5.30
2023-06-17T08:12:08.527Z,10.65
2023-06-17T08:14:36.780Z,7.88
2023-06-17T08:17:04.857Z,8.15
2023-06-17T08:19:32.591Z,8.40
2023-06-17T08:22:00.040Z,4.47
2023-06-17T08:24:28.084Z,6.90
2023-06-17T08:26:55.413Z,7.82
2023-06-17T08:29:23.513Z,6.00
2023-06-17T08:31:52.092Z,9.02
2023-06-17T08:34:20.213Z,11.23
2023-06-17T08:36:50.902Z,6.57
2023-06-17T08:39:18.826Z,4.72
2023-06-17T08:41:46.641Z,8.57
2023-06-17T08:44:15.054Z,5.53
2023-06-17T08:46:43.961Z,7.75
2023-06-17T08:49:13.035Z,11.35
2023-06-17T08:51:41.149Z,8.27
2023-06-17T08:54:08.750Z,7.47
2023-06-17T08:56:36.388Z,7.50
2023-06-17T08:59:04.445Z,11.38
2023-06-17T09:01:32.666Z,11.60
2023-06-17T09:04:00.589Z,12.13
2023-06-17T09:06:30.744Z,16.33
2023-06-17T09:08:58.961Z,7.70
2023-06-17T09:11:28.392Z,7.68
2023-06-17T09:13:57.441Z,7.78
2023-06-17T09:16:25.890Z,6.43
2023-06-17T09:19:05.529Z,6.00
2023-06-17T09:21:33.587Z,6.43
2023-06-17T09:24:02.163Z,13.20
2023-06-17T09:26:30.977Z,11.30
2023-06-17T09:29:04.866Z,8.07
2023-06-17T09:31:32.624Z,8.23
2023-06-17T09:34:04.275Z,10.88
2023-06-17T09:36:32.093Z,12.90
2023-06-17T09:38:59.971Z,8.10
2023-06-17T09:41:27.721Z,10.15
2023-06-17T09:43:55.618Z,6.40
2023-06-17T09:46:30.959Z,9.13
2023-06-17T09:48:58.746Z,13.25
2023-06-17T09:51:26.391Z,9.05
2023-06-17T09:53:55.581Z,8.23
2023-06-17T09:56:23.483Z,10.38
2023-06-17T09:58:51.742Z,8.90
2023-06-17T10:01:20.019Z,14.00
2023-06-17T10:03:47.686Z,9.18
2023-06-17T10:06:17.522Z,12.18
2023-06-17T10:08:45.113Z,11.70
2023-06-17T10:11:18.909Z,14.10
2023-06-17T10:13:54.534Z,9.07
2023-06-17T10:16:22.712Z,10.18
2023-06-17T10:18:50.229Z,10.02
2023-06-17T10:21:17.718Z,8.38
2023-06-17T10:23:45.821Z,9.75
2023-06-17T10:26:14.853Z,10.05
2023-06-17T10:28:47.832Z,9.60
2023-06-17T10:31:32.300Z,7.70
2023-06-17T10:34:03.344Z,14.23
2023-06-17T10:36:30.754Z,10.73
2023-06-17T10:39:04.646Z,9.02
2023-06-17T10:41:46.886Z,10.43
2023-06-17T10:44:36.607Z,9.20
2023-06-17T10:47:06.842Z,8.38
2023-06-17T10:49:40.367Z,10.43
2023-06-17T10:52:12.847Z,15.23
2023-06-17T10:54:56.493Z,14.73
2023-06-17T10:57:34.850Z,12.70
2023-06-17T11:00:11.830Z,6.55
2023-06-17T11:02:39.646Z,11.80
2023-06-17T11:05:07.725Z,15.45
2023-06-17T11:07:35.787Z,8.93
2023-06-17T11:10:04.124Z,18.20
2023-06-17T11:12:31.827Z,15.20
2023-06-17T11:15:01.038Z,10.80
2023-06-17T11:17:29.659Z,7.70
2023-06-17T11:19:57.209Z,12.43
2023-06-17T11:22:24.716Z,14.48
2023-06-17T11:24:52.252Z,14.02
2023-06-17T11:27:20.096Z,18.77
2023-06-17T11:29:47.641Z,11.85
2023-06-17T11:32:14.946Z,24.17
2023-06-17T11:34:42.627Z,11.43
2023-06-17T11:37:12.560Z,28.15
2023-06-17T11:39:40.124Z,14.65
2023-06-17T11:42:08.703Z,13.20
2023-06-17T11:44:36.857Z,17.63
2023-06-17T11:47:08.467Z,12.80
2023-06-17T11:49:36.735Z,7.97
2023-06-17T11:52:08.006Z,9.75
2023-06-17T11:54:35.746Z,10.35
2023-06-17T11:57:04.206Z,15.18
2023-06-17T11:59:32.236Z,11.20
2023-06-17T12:01:59.631Z,9.68
2023-06-17T12:04:27.749Z,13.00
2023-06-17T12:06:55.436Z,12.10
2023-06-17T12:09:23.625Z,11.23
2023-06-17T12:11:51.259Z,9.43
2023-06-17T12:14:20.683Z,14.23
2023-06-17T12:16:48.517Z,16.73
2023-06-17T12:19:22.586Z,22.83
2023-06-17T12:21:50.397Z,14.85
2023-06-17T12:24:18.742Z,11.38
2023-06-17T12:26:46.437Z,10.60
2023-06-17T12:29:24.422Z,15.88
2023-06-17T12:31:54.524Z,13.57
2023-06-17T12:34:21.962Z,20.85
2023-06-17T12:36:50.024Z,13.52
2023-06-17T12:39:17.390Z,13.18
2023-06-17T12:41:44.821Z,9.27
2023-06-17T12:44:12.662Z,12.35
2023-06-17T12:46:41.957Z,15.02
2023-06-17T12:49:09.917Z,13.25
2023-06-17T12:51:37.529Z,13.75
2023-06-17T12:54:06.090Z,15.45
2023-06-17T12:56:33.728Z,17.25
2023-06-17T12:59:02.149Z,12.05
2023-06-17T13:01:30.062Z,9.82
2023-06-17T13:03:58.693Z,12.25
2023-06-17T13:06:27.308Z,11.95
2023-06-17T13:08:55.205Z,11.85
2023-06-17T13:11:22.988Z,15.35
2023-06-17T13:13:51.527Z,19.25
2023-06-17T13:16:18.656Z,20.02
2023-06-17T13:18:45.839Z,18.63
2023-06-17T13:21:14.101Z,23.77
2023-06-17T13:23:42.741Z,23.83
2023-06-17T13:26:11.715Z,22.00
2023-06-17T13:28:39.973Z,16.98
2023-06-17T13:31:07.655Z,22.10
2023-06-17T13:33:35.688Z,17.02
2023-06-17T13:36:03.862Z,14.10
2023-06-17T13:38:31.583Z,13.20
2023-06-17T13:40:59.140Z,11.18
2023-06-17T13:43:26.369Z,11.30
2023-06-17T13:45:54.025Z,15.35
2023-06-17T13:48:22.489Z,17.67
2023-06-17T13:50:53.091Z,28.60
2023-06-17T13:53:20.754Z,15.30
2023-06-17T13:55:49.605Z,18.55
2023-06-17T13:58:17.473Z,12.82
2023-06-17T14:00:45.417Z,19.15
2023-06-17T14:03:15.241Z,16.10
2023-06-17T14:05:44.287Z,20.73
2023-06-17T14:08:11.848Z,16.42
2023-06-17T14:10:39.649Z,15.82
2023-06-17T14:13:06.902Z,23.48
2023-06-17T14:15:34.834Z,26.73
2023-06-17T14:18:02.711Z,13.48
2023-06-17T14:20:30.554Z,24.05
2023-06-17T14:22:59.485Z,14.18
2023-06-17T14:25:27.493Z,23.35
2023-06-17T14:27:54.884Z,21.17
2023-06-17T14:30:22.541Z,18.42
2023-06-17T14:32:51.332Z,20.50
2023-06-17T14:35:19.031Z,18.55
2023-06-17T14:37:47.573Z,18.65
2023-06-17T14:40:15.515Z,17.23
2023-06-17T14:42:43.166Z,23.42
2023-06-17T14:45:12.414Z,20.77
2023-06-17T14:47:40.789Z,21.15
2023-06-17T14:50:09.744Z,25.23
2023-06-17T14:52:37.811Z,22.23
2023-06-17T14:55:06.310Z,20.77
2023-06-17T14:57:34.067Z,24.40
2023-06-17T15:00:01.919Z,16.63
2023-06-17T15:02:54.219Z,19.27
2023-06-17T15:05:21.862Z,24.42
2023-06-17T15:07:49.797Z,21.02
2023-06-17T15:10:18.035Z,29.27
2023-06-17T15:12:46.221Z,28.92
2023-06-17T15:15:14.493Z,27.88
2023-06-17T15:17:42.208Z,20.33
2023-06-17T15:20:11.234Z,41.05
2023-06-17T15:22:39.116Z,21.00
2023-06-17T15:25:07.890Z,18.02
2023-06-17T15:27:35.851Z,24.20
2023-06-17T15:30:03.715Z,23.95
2023-06-17T15:32:31.648Z,24.20
2023-06-17T15:34:59.691Z,28.65
2023-06-17T15:37:30.077Z,27.35
2023-06-17T15:39:57.505Z,21.70
2023-06-17T15:42:25.509Z,26.67
2023-06-17T15:44:53.035Z,21.17
2023-06-17T15:47:20.655Z,21.58
2023-06-17T15:49:49.620Z,24.75
2023-06-17T15:52:17.203Z,24.27
2023-06-17T15:54:45.182Z,31.27
2023-06-17T15:57:15.012Z,39.65
2023-06-17T15:59:43.032Z,36.63
2023-06-17T16:02:10.708Z,35.75
2023-06-17T16:04:39.635Z,22.00
2023-06-17T16:07:13.327Z,41.13
2023-06-17T16:09:49.066Z,26.58
2023-06-17T16:12:24.245Z,41.42
2023-06-17T16:14:52.236Z,39.38
2023-06-17T16:17:20.541Z,36.15
2023-06-17T16:19:48.291Z,32.70
2023-06-17T16:22:16.829Z,30.38
2023-06-17T16:24:44.563Z,32.90
2023-06-17T16:27:14.246Z,32.20
2023-06-17T16:29:41.924Z,26.63
2023-06-17T16:32:09.981Z,25.05
2023-06-17T16:34:38.005Z,27.02
2023-06-17T16:37:06.213Z,24.63
2023-06-17T16:39:33.863Z,18.45
2023-06-17T16:42:02.364Z,20.05
2023-06-17T16:44:32.065Z,18.65
2023-06-17T16:46:59.488Z,24.73
2023-06-17T16:49:27.246Z,20.58
2023-06-17T16:51:54.623Z,23.15
2023-06-17T16:54:22.358Z,21.40
2023-06-17T16:56:49.844Z,22.33
2023-06-17T16:59:17.499Z,20.65
2023-06-17T17:01:45.028Z,19.95
2023-06-17T17:04:13.765Z,19.70
2023-06-17T17:06:42.464Z,25.17
2023-06-17T17:09:10.348Z,17.63
2023-06-17T17:11:39.084Z,16.27
2023-06-17T17:14:07.752Z,15.55
2023-06-17T17:16:56.466Z,18.35
2023-06-17T17:19:35.195Z,21.15
2023-06-17T17:22:12.339Z,20.77
2023-06-17T17:24:45.019Z,20.30
2023-06-17T17:27:13.144Z,28.23
2023-06-17T17:29:44.435Z,27.90
2023-06-17T17:32:13.647Z,27.27
2023-06-17T17:34:41.410Z,24.30
2023-06-17T17:37:08.869Z,20.45
2023-06-17T17:39:36.727Z,18.25
2023-06-17T17:42:04.550Z,38.33
2023-06-17T17:44:32.072Z,27.45
2023-06-17T17:46:59.605Z,27.30
2023-06-17T17:49:31.766Z,21.55
2023-06-17T17:51:59.710Z,31.55
2023-06-17T17:54:27.031Z,24.20
2023-06-17T17:56:55.009Z,21.58
2023-06-17T17:59:22.368Z,22.02
2023-06-17T18:01:50.012Z,26.30
2023-06-17T18:04:17.885Z,32.03
2023-06-17T18:06:45.765Z,19.30
2023-06-17T18:09:13.251Z,19.30
2023-06-17T18:11:41.429Z,27.85
2023-06-17T18:14:08.933Z,28.25
2023-06-17T18:16:36.317Z,21.35
2023-06-17T18:19:05.356Z,19.35
2023-06-17T18:21:33.411Z,30.48
2023-06-17T18:24:04.187Z,26.95
2023-06-17T18:26:32.038Z,21.92
2023-06-17T18:29:00.242Z,24.80
2023-06-17T18:31:27.750Z,35.35
2023-06-17T18:33:56.342Z,29.33
2023-06-17T18:36:23.778Z,29.25
2023-06-17T18:38:58.247Z,30.88
2023-06-17T18:41:27.481Z,20.92
2023-06-17T18:43:57.456Z,24.27
2023-06-17T18:46:26.077Z,30.75
2023-06-17T18:48:53.767Z,32.22
2023-06-17T18:51:21.616Z,27.60
2023-06-17T18:53:49.236Z,21.65
2023-06-17T18:56:17.105Z,27.73
2023-06-17T18:58:45.061Z,27.58
2023-06-17T19:01:13.162Z,30.42
2023-06-17T19:03:43.823Z,26.90
2023-06-17T19:06:11.698Z,26.98
2023-06-17T19:08:38.945Z,19.95
2023-06-17T19:11:07.027Z,23.60
2023-06-17T19:13:34.879Z,22.58
2023-06-17T19:16:02.331Z,34.97
2023-06-17T19:18:30.682Z,28.27
2023-06-17T19:20:58.045Z,33.40
2023-06-17T19:23:25.968Z,22.52
2023-06-17T19:25:53.542Z,28.45
2023-06-17T19:28:21.237Z,21.85
2023-06-17T19:30:49.531Z,29.25
2023-06-17T19:33:17.277Z,26.98
2023-06-17T19:35:44.678Z,26.80
2023-06-17T19:38:12.238Z,31.15
2023-06-17T19:40:40.109Z,29.63
2023-06-17T19:43:07.781Z,25.55
2023-06-17T19:45:36.940Z,33.72
2023-06-17T19:48:05.445Z,25.73
2023-06-17T19:50:33.996Z,24.05
2023-06-17T19:53:03.085Z,23.15
2023-06-17T19:55:30.922Z,32.00
2023-06-17T19:57:58.305Z,25.88
2023-06-17T20:00:26.148Z,24.95
2023-06-17T20:02:56.362Z,25.20
2023-06-17T20:05:23.904Z,30.83
2023-06-17T20:07:51.815Z,26.17
2023-06-17T20:10:19.434Z,23.00
2023-06-17T20:12:48.025Z,29.80
2023-06-17T20:15:15.820Z,27.65
2023-06-17T20:17:43.903Z,20.95
2023-06-17T20:20:14.094Z,20.13
2023-06-17T20:22:42.300Z,34.22
2023-06-17T20:25:10.815Z,29.00
2023-06-17T20:27:41.627Z,22.70
2023-06-17T20:30:09.340Z,24.10
2023-06-17T20:32:36.539Z,27.23
2023-06-17T20:35:04.348Z,25.15
2023-06-17T20:37:32.080Z,21.77
2023-06-17T20:39:59.800Z,22.73
2023-06-17T20:42:27.723Z,30.60
2023-06-17T20:44:55.604Z,24.35
2023-06-17T20:47:24.082Z,22.40
2023-06-17T20:49:51.567Z,16.98
2023-06-17T20:52:19.171Z,20.30
2023-06-17T20:54:46.836Z,23.02
2023-06-17T20:57:14.108Z,20.90
2023-06-17T20:59:41.401Z,19.95
2023-06-17T21:02:09.090Z,15.60
2023-06-17T21:04:36.731Z,18.55
2023-06-17T21:07:05.015Z,16.42
2023-06-17T21:09:33.027Z,18.85
2023-06-17T21:12:01.053Z,20.95
2023-06-17T21:14:29.265Z,15.63
2023-06-17T21:16:56.791Z,24.58
2023-06-17T21:19:24.030Z,16.75
2023-06-17T21:21:51.659Z,14.07
2023-06-17T21:24:20.706Z,16.20
2023-06-17T21:26:48.610Z,14.60
2023-06-17T21:29:16.282Z,15.98
2023-06-17T21:31:44.295Z,13.20
2023-06-17T21:34:11.691Z,29.75
2023-06-17T21:36:39.368Z,20.85
2023-06-17T21:39:09.028Z,19.00
2023-06-17T21:41:36.935Z,34.80
2023-06-17T21:44:04.711Z,24.40
2023-06-17T21:46:32.218Z,25.05
2023-06-17T21:49:00.243Z,16.90
2023-06-17T21:51:27.639Z,23.15
2023-06-17T21:53:55.563Z,22.70
2023-06-17T21:56:23.015Z,26.00
2023-06-17T21:58:50.615Z,24.10
2023-06-17T22:01:18.509Z,23.48
2023-06-17T22:03:46.331Z,28.23
2023-06-17T22:06:14.301Z,29.92
2023-06-17T22:08:43.932Z,39.35
2023-06-17T22:11:12.316Z,27.20
2023-06-17T22:13:40.330Z,17.85
2023-06-17T22:16:08.134Z,26.65
2023-06-17T22:18:36.465Z,21.15
2023-06-17T22:21:04.020Z,15.90
2023-06-17T22:23:31.634Z,18.02
2023-06-17T22:25:59.896Z,21.85
2023-06-17T22:28:27.839Z,23.63
2023-06-17T22:30:55.833Z,28.10
2023-06-17T22:33:23.291Z,20.58
2023-06-17T22:35:51.054Z,20.73
2023-06-17T22:38:19.498Z,26.23
2023-06-17T22:40:46.953Z,20.77
2023-06-17T22:43:15.944Z,21.55
2023-06-17T22:45:43.758Z,14.27
2023-06-17T22:48:11.318Z,16.08
2023-06-17T22:50:38.618Z,12.70
2023-06-17T22:53:06.122Z,19.42
2023-06-17T22:55:33.503Z,11.57
2023-06-17T22:58:01.271Z,13.40
2023-06-17T23:00:28.523Z,11.77
2023-06-17T23:02:56.933Z,12.98
2023-06-17T23:05:24.517Z,16.58
2023-06-17T23:07:52.142Z,11.57
2023-06-17T23:10:19.949Z,19.35
2023-06-17T23:12:47.895Z,14.48
2023-06-17T23:15:15.957Z,12.98
2023-06-17T23:17:43.845Z,20.55
2023-06-17T23:20:11.196Z,12.90
2023-06-17T23:22:38.966Z,10.80
2023-06-17T23:25:08.373Z,13.65
2023-06-17T23:27:36.668Z,12.45
2023-06-17T23:30:04.702Z,17.60
2023-06-17T23:32:32.715Z,13.50
2023-06-17T23:35:00.862Z,8.13
2023-06-17T23:37:28.632Z,9.88
2023-06-17T23:39:56.738Z,11.55
2023-06-17T23:42:24.470Z,8.38
2023-06-17T23:44:52.986Z,12.02
2023-06-17T23:47:20.321Z,12.13
2023-06-17T23:49:47.966Z,11.40
2023-06-17T23:52:15.469Z,15.05
2023-06-17T23:54:43.078Z,26.02
2023-06-17T23:57:11.196Z,13.18
2023-06-17T23:59:39.464Z,12.43
